Portada
METAR-TAF:

METAR-TAF

Aeroports :

Stuttgart Municipal Airport

Stuttgart, Arkansas, Estats Units d'Amèrica

latitud: 34-36N, longitud: 091-34W, altitud: 68 m

Observació

L'informe es va fer fa 26 minuts, a les 07:56 UTC
Vent calma
Temperatura 14°C
Humitat 88%
Pressió 1022 hPa
Visibilitat: 16.1 km
Cel clar

METAR: KSGT 300756Z AUTO 00000KT 10SM CLR 14/12 A3018 RMK AO2 SLP220 T01390117

Hora: 03:22 (08:22 UTC)


TAF: manca

Observacions i pronòstics meteorològics de més de 4000 aeroports (METAR i TAF).

Les estacions disponibles són els punts grocs i vermells al mapa.

Posi el ratolí al punt desitjat per veure el nom de l'estació.

Feu clic per veure les observacions i els pronòstics meteorològics.

Per canviar el mapa: feu clic els botons verds amb una creu de color negre per apropar; al botó verd amb un guió per allunyar la imatge; o en les fletxes verdes per a mapes adjacents.


METAR-TAF: